sensor_id;sensor_type;location;lat;lon;timestamp;temperature;humidity
45969;DHT22;31676;40.444;-3.668;2023-05-09T00:00:28;25.10;70.70
45969;DHT22;31676;40.444;-3.668;2023-05-09T00:02:54;25.10;70.70
45969;DHT22;31676;40.444;-3.668;2023-05-09T00:05:20;25.10;70.70
45969;DHT22;31676;40.444;-3.668;2023-05-09T00:07:46;25.10;70.70
45969;DHT22;31676;40.444;-3.668;2023-05-09T00:10:12;25.10;70.70
45969;DHT22;31676;40.444;-3.668;2023-05-09T00:12:38;25.10;70.70
45969;DHT22;31676;40.444;-3.668;2023-05-09T00:15:04;25.10;70.70
45969;DHT22;31676;40.444;-3.668;2023-05-09T00:17:33;25.10;70.70
45969;DHT22;31676;40.444;-3.668;2023-05-09T00:19:58;25.10;70.80
45969;DHT22;31676;40.444;-3.668;2023-05-09T00:22:26;25.10;70.70
45969;DHT22;31676;40.444;-3.668;2023-05-09T00:24:52;25.10;70.70
45969;DHT22;31676;40.444;-3.668;2023-05-09T00:27:17;25.10;70.70
45969;DHT22;31676;40.444;-3.668;2023-05-09T00:29:43;25.10;70.80
45969;DHT22;31676;40.444;-3.668;2023-05-09T00:32:09;25.10;70.70
45969;DHT22;31676;40.444;-3.668;2023-05-09T00:34:35;25.10;70.80
45969;DHT22;31676;40.444;-3.668;2023-05-09T00:37:01;25.10;70.80
45969;DHT22;31676;40.444;-3.668;2023-05-09T00:39:26;25.10;70.80
45969;DHT22;31676;40.444;-3.668;2023-05-09T00:41:54;25.10;70.80
45969;DHT22;31676;40.444;-3.668;2023-05-09T00:44:19;25.00;70.70
45969;DHT22;31676;40.444;-3.668;2023-05-09T00:46:45;25.10;70.80
45969;DHT22;31676;40.444;-3.668;2023-05-09T00:49:11;25.00;70.70
45969;DHT22;31676;40.444;-3.668;2023-05-09T00:51:38;25.00;70.70
45969;DHT22;31676;40.444;-3.668;2023-05-09T00:54:04;25.00;70.70
45969;DHT22;31676;40.444;-3.668;2023-05-09T00:56:30;25.00;70.70
45969;DHT22;31676;40.444;-3.668;2023-05-09T01:01:28;25.00;70.70
45969;DHT22;31676;40.444;-3.668;2023-05-09T01:03:54;25.00;70.70
45969;DHT22;31676;40.444;-3.668;2023-05-09T01:06:31;25.00;70.70
45969;DHT22;31676;40.444;-3.668;2023-05-09T01:09:09;25.00;70.80
45969;DHT22;31676;40.444;-3.668;2023-05-09T01:14:27;25.00;70.80
45969;DHT22;31676;40.444;-3.668;2023-05-09T01:21:55;25.00;70.80
45969;DHT22;31676;40.444;-3.668;2023-05-09T01:29:24;25.00;70.80
45969;DHT22;31676;40.444;-3.668;2023-05-09T01:31:52;25.00;70.80
45969;DHT22;31676;40.444;-3.668;2023-05-09T01:34:19;25.00;70.80
45969;DHT22;31676;40.444;-3.668;2023-05-09T01:36:46;25.00;70.80
45969;DHT22;31676;40.444;-3.668;2023-05-09T01:39:14;25.00;70.80
45969;DHT22;31676;40.444;-3.668;2023-05-09T01:41:42;25.00;70.80
45969;DHT22;31676;40.444;-3.668;2023-05-09T01:44:08;25.00;70.80
45969;DHT22;31676;40.444;-3.668;2023-05-09T01:46:35;25.00;70.80
45969;DHT22;31676;40.444;-3.668;2023-05-09T01:49:01;24.90;70.80
45969;DHT22;31676;40.444;-3.668;2023-05-09T01:51:28;24.90;70.80
45969;DHT22;31676;40.444;-3.668;2023-05-09T01:53:54;24.90;70.80
45969;DHT22;31676;40.444;-3.668;2023-05-09T01:56:21;25.00;70.90
45969;DHT22;31676;40.444;-3.668;2023-05-09T01:58:51;24.90;70.90
45969;DHT22;31676;40.444;-3.668;2023-05-09T02:01:28;24.90;70.80
45969;DHT22;31676;40.444;-3.668;2023-05-09T02:03:54;24.90;70.80
45969;DHT22;31676;40.444;-3.668;2023-05-09T02:06:21;24.90;70.80
45969;DHT22;31676;40.444;-3.668;2023-05-09T02:08:47;24.90;70.80
45969;DHT22;31676;40.444;-3.668;2023-05-09T02:11:14;24.90;70.80
45969;DHT22;31676;40.444;-3.668;2023-05-09T02:13:39;24.90;70.80
45969;DHT22;31676;40.444;-3.668;2023-05-09T02:16:05;24.90;70.80
45969;DHT22;31676;40.444;-3.668;2023-05-09T02:18:35;24.90;70.80
45969;DHT22;31676;40.444;-3.668;2023-05-09T02:21:01;24.90;70.80
45969;DHT22;31676;40.444;-3.668;2023-05-09T02:23:27;24.90;70.80
45969;DHT22;31676;40.444;-3.668;2023-05-09T02:25:53;24.90;70.80
45969;DHT22;31676;40.444;-3.668;2023-05-09T02:28:19;24.90;70.80
45969;DHT22;31676;40.444;-3.668;2023-05-09T02:30:46;24.90;70.80
45969;DHT22;31676;40.444;-3.668;2023-05-09T02:33:14;24.90;70.80
45969;DHT22;31676;40.444;-3.668;2023-05-09T02:35:41;24.90;70.80
45969;DHT22;31676;40.444;-3.668;2023-05-09T02:38:07;24.90;70.80
45969;DHT22;31676;40.444;-3.668;2023-05-09T02:40:33;24.90;70.80
45969;DHT22;31676;40.444;-3.668;2023-05-09T02:42:58;24.90;70.80
45969;DHT22;31676;40.444;-3.668;2023-05-09T02:45:24;24.90;71.50
45969;DHT22;31676;40.444;-3.668;2023-05-09T02:47:50;24.90;70.80
45969;DHT22;31676;40.444;-3.668;2023-05-09T02:50:16;24.90;70.90
45969;DHT22;31676;40.444;-3.668;2023-05-09T02:52:41;24.90;70.90
45969;DHT22;31676;40.444;-3.668;2023-05-09T02:55:07;24.90;70.90
45969;DHT22;31676;40.444;-3.668;2023-05-09T02:57:33;24.90;70.90
45969;DHT22;31676;40.444;-3.668;2023-05-09T02:59:59;24.80;70.80
45969;DHT22;31676;40.444;-3.668;2023-05-09T03:02:25;24.80;70.80
45969;DHT22;31676;40.444;-3.668;2023-05-09T03:04:51;24.90;70.90
45969;DHT22;31676;40.444;-3.668;2023-05-09T03:07:19;24.90;70.90
45969;DHT22;31676;40.444;-3.668;2023-05-09T03:09:44;24.90;70.90
45969;DHT22;31676;40.444;-3.668;2023-05-09T03:12:10;24.90;70.90
45969;DHT22;31676;40.444;-3.668;2023-05-09T03:14:36;24.90;70.90
45969;DHT22;31676;40.444;-3.668;2023-05-09T03:17:01;24.90;70.90
45969;DHT22;31676;40.444;-3.668;2023-05-09T03:19:27;24.90;70.90
45969;DHT22;31676;40.444;-3.668;2023-05-09T03:21:53;24.80;70.80
45969;DHT22;31676;40.444;-3.668;2023-05-09T03:24:18;24.80;70.90
45969;DHT22;31676;40.444;-3.668;2023-05-09T03:26:44;24.80;70.80
45969;DHT22;31676;40.444;-3.668;2023-05-09T03:29:10;24.90;70.90
45969;DHT22;31676;40.444;-3.668;2023-05-09T03:31:36;24.90;70.90
45969;DHT22;31676;40.444;-3.668;2023-05-09T03:34:01;24.80;70.80
45969;DHT22;31676;40.444;-3.668;2023-05-09T03:36:27;24.80;70.90
45969;DHT22;31676;40.444;-3.668;2023-05-09T03:38:52;24.80;70.90
45969;DHT22;31676;40.444;-3.668;2023-05-09T03:41:19;24.80;70.90
45969;DHT22;31676;40.444;-3.668;2023-05-09T03:43:45;24.80;70.90
45969;DHT22;31676;40.444;-3.668;2023-05-09T03:46:11;24.80;70.90
45969;DHT22;31676;40.444;-3.668;2023-05-09T03:48:36;24.80;70.90
45969;DHT22;31676;40.444;-3.668;2023-05-09T03:51:02;24.80;70.90
45969;DHT22;31676;40.444;-3.668;2023-05-09T03:53:28;24.80;70.90
45969;DHT22;31676;40.444;-3.668;2023-05-09T03:55:53;24.80;70.90
45969;DHT22;31676;40.444;-3.668;2023-05-09T03:58:19;24.80;71.60
45969;DHT22;31676;40.444;-3.668;2023-05-09T04:00:45;24.80;70.90
45969;DHT22;31676;40.444;-3.668;2023-05-09T04:03:10;24.80;70.90
45969;DHT22;31676;40.444;-3.668;2023-05-09T04:05:36;24.80;70.90
45969;DHT22;31676;40.444;-3.668;2023-05-09T04:08:02;24.80;71.00
45969;DHT22;31676;40.444;-3.668;2023-05-09T04:10:29;24.80;70.90
45969;DHT22;31676;40.444;-3.668;2023-05-09T04:12:55;24.80;71.00
45969;DHT22;31676;40.444;-3.668;2023-05-09T04:15:21;24.80;70.90
45969;DHT22;31676;40.444;-3.668;2023-05-09T04:17:46;24.80;70.90
45969;DHT22;31676;40.444;-3.668;2023-05-09T04:20:12;24.80;71.00
45969;DHT22;31676;40.444;-3.668;2023-05-09T04:22:38;24.80;70.90
45969;DHT22;31676;40.444;-3.668;2023-05-09T04:25:03;24.70;70.90
45969;DHT22;31676;40.444;-3.668;2023-05-09T04:27:29;24.80;70.90
45969;DHT22;31676;40.444;-3.668;2023-05-09T04:29:55;24.80;70.90
45969;DHT22;31676;40.444;-3.668;2023-05-09T04:32:21;24.80;70.90
45969;DHT22;31676;40.444;-3.668;2023-05-09T04:34:46;24.70;70.90
45969;DHT22;31676;40.444;-3.668;2023-05-09T04:37:12;24.80;70.90
45969;DHT22;31676;40.444;-3.668;2023-05-09T04:39:38;24.70;70.90
45969;DHT22;31676;40.444;-3.668;2023-05-09T04:42:03;24.70;70.90
45969;DHT22;31676;40.444;-3.668;2023-05-09T04:44:29;24.70;70.90
45969;DHT22;31676;40.444;-3.668;2023-05-09T04:46:55;24.70;70.90
45969;DHT22;31676;40.444;-3.668;2023-05-09T04:49:22;24.70;70.90
45969;DHT22;31676;40.444;-3.668;2023-05-09T04:51:48;24.70;70.90
45969;DHT22;31676;40.444;-3.668;2023-05-09T04:54:14;24.70;70.90
45969;DHT22;31676;40.444;-3.668;2023-05-09T04:56:39;24.70;70.90
45969;DHT22;31676;40.444;-3.668;2023-05-09T04:59:05;24.70;70.90
45969;DHT22;31676;40.444;-3.668;2023-05-09T05:01:31;24.70;70.90
45969;DHT22;31676;40.444;-3.668;2023-05-09T05:03:57;24.70;70.90
45969;DHT22;31676;40.444;-3.668;2023-05-09T05:06:22;24.70;70.90
45969;DHT22;31676;40.444;-3.668;2023-05-09T05:08:48;24.70;70.90
45969;DHT22;31676;40.444;-3.668;2023-05-09T05:11:13;24.70;70.90
45969;DHT22;31676;40.444;-3.668;2023-05-09T05:13:39;24.70;70.90
45969;DHT22;31676;40.444;-3.668;2023-05-09T05:16:05;24.70;70.90
45969;DHT22;31676;40.444;-3.668;2023-05-09T05:18:31;24.70;70.90
45969;DHT22;31676;40.444;-3.668;2023-05-09T05:20:56;24.70;70.90
45969;DHT22;31676;40.444;-3.668;2023-05-09T05:23:22;24.70;70.90
45969;DHT22;31676;40.444;-3.668;2023-05-09T05:25:47;24.70;70.90
45969;DHT22;31676;40.444;-3.668;2023-05-09T05:28:13;24.70;70.90
45969;DHT22;31676;40.444;-3.668;2023-05-09T05:30:39;24.70;70.90
45969;DHT22;31676;40.444;-3.668;2023-05-09T05:33:05;24.70;70.90
45969;DHT22;31676;40.444;-3.668;2023-05-09T05:35:30;24.70;70.90
45969;DHT22;31676;40.444;-3.668;2023-05-09T05:37:56;24.70;70.90
45969;DHT22;31676;40.444;-3.668;2023-05-09T05:40:22;24.60;70.80
45969;DHT22;31676;40.444;-3.668;2023-05-09T05:42:47;24.70;70.90
45969;DHT22;31676;40.444;-3.668;2023-05-09T05:45:13;24.70;70.90
45969;DHT22;31676;40.444;-3.668;2023-05-09T05:47:39;24.70;70.90
45969;DHT22;31676;40.444;-3.668;2023-05-09T05:50:05;24.70;70.90
45969;DHT22;31676;40.444;-3.668;2023-05-09T05:52:36;24.60;70.90
45969;DHT22;31676;40.444;-3.668;2023-05-09T05:55:03;24.60;70.90
45969;DHT22;31676;40.444;-3.668;2023-05-09T05:57:28;24.60;70.90
45969;DHT22;31676;40.444;-3.668;2023-05-09T05:59:54;24.70;70.90
45969;DHT22;31676;40.444;-3.668;2023-05-09T06:02:20;24.60;70.80
45969;DHT22;31676;40.444;-3.668;2023-05-09T06:04:46;24.60;70.80
45969;DHT22;31676;40.444;-3.668;2023-05-09T06:07:11;24.60;70.80
45969;DHT22;31676;40.444;-3.668;2023-05-09T06:09:38;24.60;70.80
45969;DHT22;31676;40.444;-3.668;2023-05-09T06:12:04;24.60;70.80
45969;DHT22;31676;40.444;-3.668;2023-05-09T06:14:30;24.60;70.80
45969;DHT22;31676;40.444;-3.668;2023-05-09T06:16:57;24.70;70.90
45969;DHT22;31676;40.444;-3.668;2023-05-09T06:19:22;24.60;70.80
45969;DHT22;31676;40.444;-3.668;2023-05-09T06:21:48;24.60;70.80
45969;DHT22;31676;40.444;-3.668;2023-05-09T06:24:14;24.60;70.80
45969;DHT22;31676;40.444;-3.668;2023-05-09T06:26:40;24.70;70.80
45969;DHT22;31676;40.444;-3.668;2023-05-09T06:29:05;24.60;70.80
45969;DHT22;31676;40.444;-3.668;2023-05-09T06:31:32;24.60;70.80
45969;DHT22;31676;40.444;-3.668;2023-05-09T06:34:02;24.60;70.80
45969;DHT22;31676;40.444;-3.668;2023-05-09T06:36:28;24.60;70.80
45969;DHT22;31676;40.444;-3.668;2023-05-09T06:38:54;24.60;70.80
45969;DHT22;31676;40.444;-3.668;2023-05-09T06:41:20;24.60;71.40
45969;DHT22;31676;40.444;-3.668;2023-05-09T06:43:46;24.60;70.80
45969;DHT22;31676;40.444;-3.668;2023-05-09T06:46:12;24.60;70.80
45969;DHT22;31676;40.444;-3.668;2023-05-09T06:48:37;24.60;70.80
45969;DHT22;31676;40.444;-3.668;2023-05-09T06:51:03;24.60;70.80
45969;DHT22;31676;40.444;-3.668;2023-05-09T06:53:29;24.60;70.80
45969;DHT22;31676;40.444;-3.668;2023-05-09T06:55:54;24.60;70.80
45969;DHT22;31676;40.444;-3.668;2023-05-09T06:58:20;24.60;70.80
45969;DHT22;31676;40.444;-3.668;2023-05-09T07:00:46;24.60;70.80
45969;DHT22;31676;40.444;-3.668;2023-05-09T07:03:12;24.60;70.80
45969;DHT22;31676;40.444;-3.668;2023-05-09T07:05:38;24.60;70.70
45969;DHT22;31676;40.444;-3.668;2023-05-09T07:08:03;24.60;70.80
45969;DHT22;31676;40.444;-3.668;2023-05-09T07:10:29;24.60;70.80
45969;DHT22;31676;40.444;-3.668;2023-05-09T07:12:55;24.60;70.70
45969;DHT22;31676;40.444;-3.668;2023-05-09T07:15:21;24.60;70.80
45969;DHT22;31676;40.444;-3.668;2023-05-09T07:17:46;24.60;70.80
45969;DHT22;31676;40.444;-3.668;2023-05-09T07:20:12;24.60;70.70
45969;DHT22;31676;40.444;-3.668;2023-05-09T07:22:38;24.60;70.80
45969;DHT22;31676;40.444;-3.668;2023-05-09T07:25:05;24.60;70.80
45969;DHT22;31676;40.444;-3.668;2023-05-09T07:27:31;24.60;70.80
45969;DHT22;31676;40.444;-3.668;2023-05-09T07:29:57;24.60;70.80
45969;DHT22;31676;40.444;-3.668;2023-05-09T07:32:22;24.60;70.80
45969;DHT22;31676;40.444;-3.668;2023-05-09T07:34:48;24.60;70.80
45969;DHT22;31676;40.444;-3.668;2023-05-09T07:37:13;24.60;70.70
45969;DHT22;31676;40.444;-3.668;2023-05-09T07:39:39;24.60;70.80
45969;DHT22;31676;40.444;-3.668;2023-05-09T07:42:05;24.60;70.70
45969;DHT22;31676;40.444;-3.668;2023-05-09T07:44:32;24.60;70.70
45969;DHT22;31676;40.444;-3.668;2023-05-09T07:46:58;24.60;70.70
45969;DHT22;31676;40.444;-3.668;2023-05-09T07:49:25;24.60;70.70
45969;DHT22;31676;40.444;-3.668;2023-05-09T07:51:51;24.60;70.70
45969;DHT22;31676;40.444;-3.668;2023-05-09T07:54:16;24.60;70.80
45969;DHT22;31676;40.444;-3.668;2023-05-09T07:56:42;24.60;70.70
45969;DHT22;31676;40.444;-3.668;2023-05-09T07:59:08;24.60;70.70
45969;DHT22;31676;40.444;-3.668;2023-05-09T08:01:33;24.60;70.70
45969;DHT22;31676;40.444;-3.668;2023-05-09T08:03:59;24.60;70.70
45969;DHT22;31676;40.444;-3.668;2023-05-09T08:06:25;24.60;70.70
45969;DHT22;31676;40.444;-3.668;2023-05-09T08:08:51;24.60;70.70
45969;DHT22;31676;40.444;-3.668;2023-05-09T08:11:17;24.60;70.70
45969;DHT22;31676;40.444;-3.668;2023-05-09T08:13:42;24.60;70.60
45969;DHT22;31676;40.444;-3.668;2023-05-09T08:16:08;24.60;70.70
45969;DHT22;31676;40.444;-3.668;2023-05-09T08:18:34;24.60;70.60
45969;DHT22;31676;40.444;-3.668;2023-05-09T08:21:00;24.60;70.60
45969;DHT22;31676;40.444;-3.668;2023-05-09T08:23:25;24.60;70.60
45969;DHT22;31676;40.444;-3.668;2023-05-09T08:25:52;24.60;70.60
45969;DHT22;31676;40.444;-3.668;2023-05-09T08:28:18;24.60;70.60
45969;DHT22;31676;40.444;-3.668;2023-05-09T08:30:44;24.60;70.60
45969;DHT22;31676;40.444;-3.668;2023-05-09T08:33:09;24.60;70.60
45969;DHT22;31676;40.444;-3.668;2023-05-09T08:35:35;24.60;70.60
45969;DHT22;31676;40.444;-3.668;2023-05-09T08:38:01;24.60;70.60
45969;DHT22;31676;40.444;-3.668;2023-05-09T08:40:26;24.60;70.50
45969;DHT22;31676;40.444;-3.668;2023-05-09T08:42:52;24.60;70.60
45969;DHT22;31676;40.444;-3.668;2023-05-09T08:45:19;24.60;70.50
45969;DHT22;31676;40.444;-3.668;2023-05-09T08:47:47;24.60;70.60
45969;DHT22;31676;40.444;-3.668;2023-05-09T08:50:13;24.60;70.60
45969;DHT22;31676;40.444;-3.668;2023-05-09T08:52:39;24.60;70.50
45969;DHT22;31676;40.444;-3.668;2023-05-09T08:55:05;24.60;70.50
45969;DHT22;31676;40.444;-3.668;2023-05-09T08:57:32;24.60;70.50
45969;DHT22;31676;40.444;-3.668;2023-05-09T08:59:59;24.60;70.50
45969;DHT22;31676;40.444;-3.668;2023-05-09T09:02:25;24.60;70.50
45969;DHT22;31676;40.444;-3.668;2023-05-09T09:04:52;24.60;70.50
45969;DHT22;31676;40.444;-3.668;2023-05-09T09:07:18;24.60;70.50
45969;DHT22;31676;40.444;-3.668;2023-05-09T09:09:45;24.70;70.50
45969;DHT22;31676;40.444;-3.668;2023-05-09T09:12:11;24.70;70.60
45969;DHT22;31676;40.444;-3.668;2023-05-09T09:14:38;24.70;70.50
45969;DHT22;31676;40.444;-3.668;2023-05-09T09:17:07;24.70;70.50
45969;DHT22;31676;40.444;-3.668;2023-05-09T09:19:33;24.70;70.50
45969;DHT22;31676;40.444;-3.668;2023-05-09T09:22:01;24.70;70.50
45969;DHT22;31676;40.444;-3.668;2023-05-09T09:24:29;24.70;70.40
45969;DHT22;31676;40.444;-3.668;2023-05-09T09:26:55;24.70;70.40
45969;DHT22;31676;40.444;-3.668;2023-05-09T09:29:21;24.70;70.40
45969;DHT22;31676;40.444;-3.668;2023-05-09T09:31:51;24.70;70.40
45969;DHT22;31676;40.444;-3.668;2023-05-09T09:34:21;24.70;70.40
45969;DHT22;31676;40.444;-3.668;2023-05-09T09:36:47;24.70;70.40
45969;DHT22;31676;40.444;-3.668;2023-05-09T09:39:13;24.70;70.40
45969;DHT22;31676;40.444;-3.668;2023-05-09T09:41:38;24.80;70.40
45969;DHT22;31676;40.444;-3.668;2023-05-09T09:44:08;24.70;70.40
45969;DHT22;31676;40.444;-3.668;2023-05-09T09:46:40;24.70;70.40
45969;DHT22;31676;40.444;-3.668;2023-05-09T09:49:10;24.70;70.40
45969;DHT22;31676;40.444;-3.668;2023-05-09T09:51:36;24.80;70.40
45969;DHT22;31676;40.444;-3.668;2023-05-09T09:54:02;24.80;70.40
45969;DHT22;31676;40.444;-3.668;2023-05-09T09:56:38;24.70;70.30
45969;DHT22;31676;40.444;-3.668;2023-05-09T09:59:14;24.80;70.40
45969;DHT22;31676;40.444;-3.668;2023-05-09T10:04:18;24.80;69.40
45969;DHT22;31676;40.444;-3.668;2023-05-09T10:06:57;24.80;69.60
45969;DHT22;31676;40.444;-3.668;2023-05-09T10:09:23;24.80;69.70
45969;DHT22;31676;40.444;-3.668;2023-05-09T10:11:50;24.80;69.70
45969;DHT22;31676;40.444;-3.668;2023-05-09T10:14:17;24.80;69.80
45969;DHT22;31676;40.444;-3.668;2023-05-09T10:16:43;24.80;69.80
45969;DHT22;31676;40.444;-3.668;2023-05-09T10:19:09;24.80;69.80
45969;DHT22;31676;40.444;-3.668;2023-05-09T10:21:36;24.80;69.50
45969;DHT22;31676;40.444;-3.668;2023-05-09T10:24:02;24.80;69.40
45969;DHT22;31676;40.444;-3.668;2023-05-09T10:26:29;24.80;69.50
45969;DHT22;31676;40.444;-3.668;2023-05-09T10:28:56;24.80;69.50
45969;DHT22;31676;40.444;-3.668;2023-05-09T10:31:27;24.80;69.60
45969;DHT22;31676;40.444;-3.668;2023-05-09T10:33:53;24.80;69.60
45969;DHT22;31676;40.444;-3.668;2023-05-09T10:36:21;24.90;69.70
45969;DHT22;31676;40.444;-3.668;2023-05-09T10:38:48;24.80;69.70
45969;DHT22;31676;40.444;-3.668;2023-05-09T10:41:17;24.90;69.80
45969;DHT22;31676;40.444;-3.668;2023-05-09T10:43:48;24.90;69.80
45969;DHT22;31676;40.444;-3.668;2023-05-09T10:46:14;24.90;69.80
45969;DHT22;31676;40.444;-3.668;2023-05-09T10:48:40;24.90;69.80
45969;DHT22;31676;40.444;-3.668;2023-05-09T10:51:07;24.90;69.80
45969;DHT22;31676;40.444;-3.668;2023-05-09T10:53:39;24.90;69.80
45969;DHT22;31676;40.444;-3.668;2023-05-09T10:56:06;24.90;69.80
45969;DHT22;31676;40.444;-3.668;2023-05-09T10:58:32;24.90;69.80
45969;DHT22;31676;40.444;-3.668;2023-05-09T11:00:59;24.90;69.80
45969;DHT22;31676;40.444;-3.668;2023-05-09T11:03:26;24.90;69.80
45969;DHT22;31676;40.444;-3.668;2023-05-09T11:05:53;24.90;69.90
45969;DHT22;31676;40.444;-3.668;2023-05-09T11:08:20;24.90;69.80
45969;DHT22;31676;40.444;-3.668;2023-05-09T11:10:46;24.90;69.80
45969;DHT22;31676;40.444;-3.668;2023-05-09T11:13:12;24.90;69.80
45969;DHT22;31676;40.444;-3.668;2023-05-09T11:18:26;24.90;69.80
45969;DHT22;31676;40.444;-3.668;2023-05-09T11:20:53;24.90;69.80
45969;DHT22;31676;40.444;-3.668;2023-05-09T11:23:19;24.90;69.80
45969;DHT22;31676;40.444;-3.668;2023-05-09T11:25:46;25.00;69.80
45969;DHT22;31676;40.444;-3.668;2023-05-09T11:28:31;25.00;69.80
45969;DHT22;31676;40.444;-3.668;2023-05-09T11:31:13;25.00;69.80
45969;DHT22;31676;40.444;-3.668;2023-05-09T11:33:39;25.00;69.80
45969;DHT22;31676;40.444;-3.668;2023-05-09T11:39:02;25.00;69.80
45969;DHT22;31676;40.444;-3.668;2023-05-09T11:41:28;25.00;69.80
45969;DHT22;31676;40.444;-3.668;2023-05-09T11:43:54;25.00;69.80
45969;DHT22;31676;40.444;-3.668;2023-05-09T11:46:25;25.10;69.80
45969;DHT22;31676;40.444;-3.668;2023-05-09T11:48:51;25.10;69.80
45969;DHT22;31676;40.444;-3.668;2023-05-09T11:51:17;25.10;69.80
45969;DHT22;31676;40.444;-3.668;2023-05-09T11:53:49;25.10;69.80
45969;DHT22;31676;40.444;-3.668;2023-05-09T11:56:15;25.10;69.80
45969;DHT22;31676;40.444;-3.668;2023-05-09T11:58:41;25.10;69.70
45969;DHT22;31676;40.444;-3.668;2023-05-09T12:01:09;25.10;69.70
45969;DHT22;31676;40.444;-3.668;2023-05-09T12:03:40;25.10;69.70
45969;DHT22;31676;40.444;-3.668;2023-05-09T12:06:06;25.10;69.70
45969;DHT22;31676;40.444;-3.668;2023-05-09T12:08:33;25.10;69.70
45969;DHT22;31676;40.444;-3.668;2023-05-09T12:11:08;25.10;69.70
45969;DHT22;31676;40.444;-3.668;2023-05-09T12:13:34;25.10;69.70
45969;DHT22;31676;40.444;-3.668;2023-05-09T12:16:00;25.10;69.70
45969;DHT22;31676;40.444;-3.668;2023-05-09T12:18:26;25.10;69.70
45969;DHT22;31676;40.444;-3.668;2023-05-09T12:20:51;25.10;69.60
45969;DHT22;31676;40.444;-3.668;2023-05-09T12:23:17;25.10;69.60
45969;DHT22;31676;40.444;-3.668;2023-05-09T12:25:47;25.20;69.70
45969;DHT22;31676;40.444;-3.668;2023-05-09T12:28:13;25.20;69.70
45969;DHT22;31676;40.444;-3.668;2023-05-09T12:30:39;25.20;69.70
45969;DHT22;31676;40.444;-3.668;2023-05-09T12:33:05;25.20;69.70
45969;DHT22;31676;40.444;-3.668;2023-05-09T12:35:36;25.20;69.70
45969;DHT22;31676;40.444;-3.668;2023-05-09T12:38:02;25.20;69.60
45969;DHT22;31676;40.444;-3.668;2023-05-09T12:40:28;25.20;69.60
45969;DHT22;31676;40.444;-3.668;2023-05-09T12:42:56;25.20;69.60
45969;DHT22;31676;40.444;-3.668;2023-05-09T12:45:25;25.20;69.60
45969;DHT22;31676;40.444;-3.668;2023-05-09T12:47:51;25.30;69.70
45969;DHT22;31676;40.444;-3.668;2023-05-09T12:50:17;25.30;69.70
45969;DHT22;31676;40.444;-3.668;2023-05-09T12:52:47;25.30;69.60
45969;DHT22;31676;40.444;-3.668;2023-05-09T12:55:13;25.30;70.20
45969;DHT22;31676;40.444;-3.668;2023-05-09T12:57:39;25.30;69.60
45969;DHT22;31676;40.444;-3.668;2023-05-09T13:00:07;25.30;69.60
45969;DHT22;31676;40.444;-3.668;2023-05-09T13:02:37;25.30;69.60
45969;DHT22;31676;40.444;-3.668;2023-05-09T13:05:07;25.30;69.60
45969;DHT22;31676;40.444;-3.668;2023-05-09T13:07:38;25.30;69.60
45969;DHT22;31676;40.444;-3.668;2023-05-09T13:10:08;25.40;69.60
45969;DHT22;31676;40.444;-3.668;2023-05-09T13:12:34;25.30;69.50
45969;DHT22;31676;40.444;-3.668;2023-05-09T13:15:00;25.30;69.50
45969;DHT22;31676;40.444;-3.668;2023-05-09T13:17:26;25.30;69.50
45969;DHT22;31676;40.444;-3.668;2023-05-09T13:19:51;25.30;69.50
45969;DHT22;31676;40.444;-3.668;2023-05-09T13:22:17;25.30;69.50
45969;DHT22;31676;40.444;-3.668;2023-05-09T13:24:43;25.30;69.50
45969;DHT22;31676;40.444;-3.668;2023-05-09T13:27:08;25.40;69.60
45969;DHT22;31676;40.444;-3.668;2023-05-09T13:29:35;25.40;69.60
45969;DHT22;31676;40.444;-3.668;2023-05-09T13:32:00;25.40;69.60
45969;DHT22;31676;40.444;-3.668;2023-05-09T13:34:27;25.40;69.60
45969;DHT22;31676;40.444;-3.668;2023-05-09T13:36:53;25.40;69.50
45969;DHT22;31676;40.444;-3.668;2023-05-09T13:39:19;25.40;69.50
45969;DHT22;31676;40.444;-3.668;2023-05-09T13:41:44;25.40;69.50
45969;DHT22;31676;40.444;-3.668;2023-05-09T13:44:10;25.40;69.50
45969;DHT22;31676;40.444;-3.668;2023-05-09T13:46:36;25.40;69.50
45969;DHT22;31676;40.444;-3.668;2023-05-09T13:49:01;25.50;69.50
45969;DHT22;31676;40.444;-3.668;2023-05-09T13:51:27;25.50;69.50
45969;DHT22;31676;40.444;-3.668;2023-05-09T13:53:53;25.40;69.40
45969;DHT22;31676;40.444;-3.668;2023-05-09T13:56:19;25.50;69.50
45969;DHT22;31676;40.444;-3.668;2023-05-09T13:58:45;25.50;69.60
45969;DHT22;31676;40.444;-3.668;2023-05-09T14:01:10;25.50;69.50
45969;DHT22;31676;40.444;-3.668;2023-05-09T14:03:36;25.50;69.50
45969;DHT22;31676;40.444;-3.668;2023-05-09T14:06:02;25.50;69.50
45969;DHT22;31676;40.444;-3.668;2023-05-09T14:08:28;25.50;69.40
45969;DHT22;31676;40.444;-3.668;2023-05-09T14:10:54;25.50;69.40
45969;DHT22;31676;40.444;-3.668;2023-05-09T14:13:20;25.50;69.40
45969;DHT22;31676;40.444;-3.668;2023-05-09T14:15:45;25.50;69.40
45969;DHT22;31676;40.444;-3.668;2023-05-09T14:18:11;25.50;69.40
45969;DHT22;31676;40.444;-3.668;2023-05-09T14:20:37;25.50;69.40
45969;DHT22;31676;40.444;-3.668;2023-05-09T14:23:04;25.50;69.40
45969;DHT22;31676;40.444;-3.668;2023-05-09T14:25:30;25.60;69.50
45969;DHT22;31676;40.444;-3.668;2023-05-09T14:27:56;25.60;69.50
45969;DHT22;31676;40.444;-3.668;2023-05-09T14:30:23;25.50;69.40
45969;DHT22;31676;40.444;-3.668;2023-05-09T14:32:50;25.60;69.40
45969;DHT22;31676;40.444;-3.668;2023-05-09T14:35:16;25.50;69.40
45969;DHT22;31676;40.444;-3.668;2023-05-09T14:37:42;25.60;69.40
45969;DHT22;31676;40.444;-3.668;2023-05-09T14:40:08;25.50;69.40
45969;DHT22;31676;40.444;-3.668;2023-05-09T14:42:34;25.60;69.50
45969;DHT22;31676;40.444;-3.668;2023-05-09T14:45:01;25.60;69.50
45969;DHT22;31676;40.444;-3.668;2023-05-09T14:47:26;25.60;69.50
45969;DHT22;31676;40.444;-3.668;2023-05-09T14:49:52;25.60;69.40
45969;DHT22;31676;40.444;-3.668;2023-05-09T14:52:18;25.60;69.50
45969;DHT22;31676;40.444;-3.668;2023-05-09T14:54:43;25.60;69.40
45969;DHT22;31676;40.444;-3.668;2023-05-09T14:57:09;25.60;69.40
45969;DHT22;31676;40.444;-3.668;2023-05-09T14:59:35;25.60;69.40
45969;DHT22;31676;40.444;-3.668;2023-05-09T15:02:00;25.60;69.40
45969;DHT22;31676;40.444;-3.668;2023-05-09T15:04:26;25.60;69.40
45969;DHT22;31676;40.444;-3.668;2023-05-09T15:06:55;25.60;69.40
45969;DHT22;31676;40.444;-3.668;2023-05-09T15:09:21;25.60;69.40
45969;DHT22;31676;40.444;-3.668;2023-05-09T15:11:47;25.60;69.40
45969;DHT22;31676;40.444;-3.668;2023-05-09T15:14:12;25.60;69.40
45969;DHT22;31676;40.444;-3.668;2023-05-09T15:16:39;25.60;69.40
45969;DHT22;31676;40.444;-3.668;2023-05-09T15:19:04;25.60;69.40
45969;DHT22;31676;40.444;-3.668;2023-05-09T15:21:30;25.60;70.00
45969;DHT22;31676;40.444;-3.668;2023-05-09T15:23:57;25.60;69.40
45969;DHT22;31676;40.444;-3.668;2023-05-09T15:26:23;25.60;69.40
45969;DHT22;31676;40.444;-3.668;2023-05-09T15:28:50;25.70;69.50
45969;DHT22;31676;40.444;-3.668;2023-05-09T15:31:16;25.70;69.50
45969;DHT22;31676;40.444;-3.668;2023-05-09T15:33:46;25.60;69.40